Unionville, MO (63565)

9:06 AM CDT on May 24, 2015 (GMT -0500)
Unionville MO | | Change Station
CLOSE
Current Station
Personal Weather Station
Location: Unionville, MO
Elevation: 1053 ft
Nearby Weather Stations

Elev 1053 ft 40.39 °N, 93.06 °W | Updated 1 second ago

Rain
Rain
60.4 °F
Feels Like 60.4 °F
N
6.0
Wind Variable Wind from SE
Gusts 11.4 mph

Today
High -- | Low -- °F
--% Chance of Precip.
Yesterday
High -- | Low -- °F
Precip. -- in
5:48 AM 8:29 PM
Waxing Crescent, 39% visible
Pressure 29.96 in
Visibility 10.0 miles
Clouds Mostly Cloudy 100 ft
Overcast 1200 ft
Dew Point 56 °F
Humidity 84%
Rainfall 0.85 in
Snow Depth Not available.
UV 1 out of 12
Pollen 1.80 out of 12
Air Quality Not available.
Flu Activity Sporadic
METAR KTVK 241355Z AUTO 10009KT 10SM -RA BKN001 OVC012 15/15 A2996 RMK AO2 P0004

More Conditions Fewer Conditions

Pressure 29.96 in
Visibility 10.0 miles
Clouds Mostly Cloudy 100 ft
Overcast 1200 ft
Dew Point 56 °F
Humidity 84%
Rainfall 0.85 in
Snow Depth Not available.
UV 1 out of 12
Pollen 1.80 out of 12
Air Quality Not available.
Flu Activity Sporadic
METAR KTVK 241355Z AUTO 10009KT 10SM -RA BKN001 OVC012 15/15 A2996 RMK AO2 P0004

More Conditions Fewer Conditions

10-Day Weather Forecast

Almanac

Astronomy

May. 24, 2015 Rise Set
Actual Time
Civil Twilight
Nautical Twilight
Astronomical Twilight
Moon
Length of Visible Light
Length of Day
Tomorrow will be .
, % of the Moon is Illuminated

Today's Extremes

State Highs State Lows

Community

WunderPhotos

Upload Photos

1,823,742 photos uploaded!

WunderBlogs® & News

Nearby

Air Quality

  Air Quality AQ Index Pollutant
Not available.

Snow Depth

Station Depth Elevation

Earthquake Activity

City Distance Mag. Time & Date
Minimum magnitude displayed is 2.5.

Coastal Water Temperatures

Place Temperature

Stations

Nearby Weather Stations

Station Location Temp. Windchill Dew Point Humidity Wind Precip. Elev Updated Type